createdAt,value
2023-05-02T00:00:58.478Z,513.00
2023-05-02T00:01:58.527Z,510.00
2023-05-02T00:02:59.233Z,509.00
2023-05-02T00:03:58.703Z,508.00
2023-05-02T00:04:58.683Z,509.00
2023-05-02T00:05:58.752Z,510.00
2023-05-02T00:06:58.848Z,508.00
2023-05-02T00:07:59.079Z,510.00
2023-05-02T00:08:58.922Z,508.00
2023-05-02T00:09:59.136Z,516.00
2023-05-02T00:10:59.037Z,513.00
2023-05-02T00:11:59.089Z,507.00
2023-05-02T00:12:59.137Z,512.00
2023-05-02T00:13:59.235Z,507.00
2023-05-02T00:14:59.266Z,513.00
2023-05-02T00:15:59.359Z,511.00
2023-05-02T00:16:59.411Z,510.00
2023-05-02T00:17:59.425Z,510.00
2023-05-02T00:18:59.481Z,515.00
2023-05-02T00:19:59.697Z,508.00
2023-05-02T00:20:59.603Z,512.00
2023-05-02T00:21:59.651Z,509.00
2023-05-02T00:22:59.711Z,514.00
2023-05-02T00:23:59.790Z,510.00
2023-05-02T00:24:59.836Z,511.00
2023-05-02T00:25:59.882Z,511.00
2023-05-02T00:26:59.961Z,517.00
2023-05-02T00:28:00.002Z,512.00
2023-05-02T00:29:00.068Z,514.00
2023-05-02T00:30:00.364Z,509.00
2023-05-02T00:31:00.337Z,510.00
2023-05-02T00:32:00.233Z,512.00
2023-05-02T00:33:00.310Z,512.00
2023-05-02T00:34:00.353Z,511.00
2023-05-02T00:35:00.446Z,512.00
2023-05-02T00:36:00.421Z,515.00
2023-05-02T00:37:00.522Z,514.00
2023-05-02T00:38:00.540Z,519.00
2023-05-02T00:39:00.561Z,516.00
2023-05-02T00:40:00.966Z,513.00
2023-05-02T00:41:00.697Z,515.00
2023-05-02T00:42:00.781Z,516.00
2023-05-02T00:43:00.848Z,510.00
2023-05-02T00:44:00.867Z,514.00
2023-05-02T00:45:00.963Z,510.00
2023-05-02T00:46:01.029Z,517.00
2023-05-02T00:47:01.056Z,508.00
2023-05-02T00:48:01.239Z,516.00
2023-05-02T00:49:01.157Z,514.00
2023-05-02T00:50:01.356Z,513.00
2023-05-02T00:51:01.248Z,513.00
2023-05-02T00:52:01.291Z,517.00
2023-05-02T00:53:01.346Z,517.00
2023-05-02T00:54:01.420Z,517.00
2023-05-02T00:55:01.466Z,521.00
2023-05-02T00:56:01.530Z,518.00
2023-05-02T00:57:01.584Z,516.00
2023-05-02T00:58:01.600Z,515.00
2023-05-02T00:59:01.657Z,512.00
2023-05-02T01:00:02.038Z,513.00
2023-05-02T01:01:01.762Z,511.00
2023-05-02T01:02:01.902Z,517.00
2023-05-02T01:03:01.970Z,514.00
2023-05-02T01:04:02.016Z,524.00
2023-05-02T01:05:02.030Z,510.00
2023-05-02T01:06:02.131Z,519.00
2023-05-02T01:07:02.185Z,515.00
2023-05-02T01:08:02.222Z,517.00
2023-05-02T01:09:02.263Z,514.00
2023-05-02T01:10:02.493Z,517.00
2023-05-02T01:11:02.361Z,517.00
2023-05-02T01:12:02.448Z,521.00
2023-05-02T01:13:02.504Z,515.00
2023-05-02T01:14:02.572Z,517.00
2023-05-02T01:15:02.613Z,519.00
2023-05-02T01:16:02.714Z,521.00
2023-05-02T01:17:02.755Z,523.00
2023-05-02T01:18:02.904Z,524.00
2023-05-02T01:19:02.855Z,521.00
2023-05-02T01:20:03.223Z,523.00
2023-05-02T01:21:02.969Z,519.00
2023-05-02T01:22:03.032Z,517.00
2023-05-02T01:23:03.072Z,514.00
2023-05-02T01:24:03.143Z,517.00
2023-05-02T01:25:03.262Z,522.00
2023-05-02T01:26:03.281Z,515.00
2023-05-02T01:27:03.334Z,519.00
2023-05-02T01:28:03.398Z,517.00
2023-05-02T01:29:03.432Z,517.00
2023-05-02T01:30:03.502Z,514.00
2023-05-02T01:31:03.601Z,511.00
2023-05-02T01:32:03.852Z,514.00
2023-05-02T01:33:03.759Z,517.00
2023-05-02T01:34:03.803Z,514.00
2023-05-02T01:35:03.849Z,519.00
2023-05-02T01:36:03.869Z,515.00
2023-05-02T01:37:03.952Z,518.00
2023-05-02T01:38:04.023Z,520.00
2023-05-02T01:39:04.098Z,517.00
2023-05-02T01:40:04.135Z,518.00
2023-05-02T01:41:04.228Z,518.00
2023-05-02T01:42:04.315Z,523.00
2023-05-02T01:43:04.304Z,526.00
2023-05-02T01:44:04.357Z,523.00
2023-05-02T01:45:04.433Z,520.00
2023-05-02T01:46:04.483Z,521.00
2023-05-02T01:47:04.599Z,524.00
2023-05-02T01:48:04.653Z,525.00
2023-05-02T01:49:04.699Z,521.00
2023-05-02T01:50:04.726Z,522.00
2023-05-02T01:51:04.839Z,519.00
2023-05-02T01:52:04.832Z,520.00
2023-05-02T01:53:04.959Z,521.00
2023-05-02T01:54:05.023Z,525.00
2023-05-02T01:55:05.120Z,526.00
2023-05-02T01:56:05.129Z,523.00
2023-05-02T01:57:05.172Z,522.00
2023-05-02T01:58:05.257Z,525.00
2023-05-02T01:59:05.293Z,523.00
2023-05-02T02:00:05.394Z,519.00
2023-05-02T02:01:05.971Z,518.00
2023-05-02T02:02:05.482Z,525.00
2023-05-02T02:03:05.565Z,518.00
2023-05-02T02:04:05.602Z,520.00
2023-05-02T02:05:05.597Z,523.00
2023-05-02T02:06:05.751Z,525.00
2023-05-02T02:07:05.718Z,522.00
2023-05-02T02:08:05.755Z,521.00
2023-05-02T02:09:05.854Z,521.00
2023-05-02T02:10:05.894Z,522.00
2023-05-02T02:11:05.957Z,521.00
2023-05-02T02:12:05.989Z,521.00
2023-05-02T02:13:06.072Z,518.00
2023-05-02T02:14:06.077Z,521.00
2023-05-02T02:15:06.181Z,516.00
2023-05-02T02:16:06.191Z,515.00
2023-05-02T02:17:06.300Z,521.00
2023-05-02T02:18:06.320Z,515.00
2023-05-02T02:19:06.337Z,523.00
2023-05-02T02:20:06.431Z,518.00
2023-05-02T02:21:06.483Z,521.00
2023-05-02T02:22:06.542Z,524.00
2023-05-02T02:23:06.587Z,522.00
2023-05-02T02:24:06.597Z,520.00
2023-05-02T02:25:06.658Z,515.00
2023-05-02T02:26:06.668Z,518.00
2023-05-02T02:27:06.790Z,519.00
2023-05-02T02:28:06.795Z,521.00
2023-05-02T02:29:06.833Z,515.00
2023-05-02T02:30:06.845Z,521.00
2023-05-02T02:31:06.955Z,519.00
2023-05-02T02:32:06.913Z,521.00
2023-05-02T02:33:07.027Z,516.00
2023-05-02T02:34:07.023Z,524.00
2023-05-02T02:35:07.068Z,523.00
2023-05-02T02:36:07.148Z,519.00
2023-05-02T02:37:07.154Z,520.00
2023-05-02T02:38:07.186Z,519.00
2023-05-02T02:39:07.264Z,516.00
2023-05-02T02:40:07.382Z,518.00
2023-05-02T02:41:07.388Z,521.00
2023-05-02T02:42:07.394Z,518.00
2023-05-02T02:43:07.436Z,512.00
2023-05-02T02:44:07.469Z,520.00
2023-05-02T02:45:07.554Z,518.00
2023-05-02T02:46:07.591Z,525.00
2023-05-02T02:47:07.618Z,522.00
2023-05-02T02:48:07.752Z,516.00
2023-05-02T02:49:07.679Z,521.00
2023-05-02T02:50:07.758Z,521.00
2023-05-02T02:51:07.725Z,523.00
2023-05-02T02:52:07.810Z,528.00
2023-05-02T02:53:07.796Z,523.00
2023-05-02T02:54:19.109Z,525.00
2023-05-02T02:55:08.831Z,525.00
2023-05-02T02:56:07.827Z,525.00
2023-05-02T02:57:07.857Z,525.00
2023-05-02T02:58:07.805Z,527.00
2023-05-02T02:59:07.797Z,526.00
2023-05-02T03:00:07.818Z,519.00
2023-05-02T03:01:07.841Z,522.00
2023-05-02T03:02:07.868Z,523.00
2023-05-02T03:03:07.831Z,515.00
2023-05-02T03:04:07.775Z,516.00
2023-05-02T03:05:07.786Z,523.00
2023-05-02T03:06:07.828Z,520.00
2023-05-02T03:07:07.765Z,518.00
2023-05-02T03:08:07.763Z,520.00
2023-05-02T03:09:07.706Z,521.00
2023-05-02T03:10:07.777Z,521.00
2023-05-02T03:11:07.793Z,519.00
2023-05-02T03:12:07.845Z,527.00
2023-05-02T03:13:07.846Z,522.00
2023-05-02T03:14:07.984Z,526.00
2023-05-02T03:15:07.921Z,520.00
2023-05-02T03:16:08.015Z,522.00
2023-05-02T03:17:08.028Z,518.00
2023-05-02T03:18:08.111Z,524.00
2023-05-02T03:19:08.152Z,526.00
2023-05-02T03:20:08.113Z,522.00
2023-05-02T03:21:08.165Z,521.00
2023-05-02T03:22:08.166Z,520.00
2023-05-02T03:23:08.294Z,523.00
2023-05-02T03:24:08.346Z,519.00
2023-05-02T03:25:08.391Z,518.00
2023-05-02T03:26:08.396Z,523.00
2023-05-02T03:27:08.470Z,520.00
2023-05-02T03:28:08.513Z,526.00
2023-05-02T03:29:08.558Z,521.00
2023-05-02T03:30:08.632Z,521.00
2023-05-02T03:31:08.813Z,522.00
2023-05-02T03:32:08.802Z,526.00
2023-05-02T03:33:08.853Z,516.00
2023-05-02T03:34:08.809Z,516.00
2023-05-02T03:35:08.875Z,524.00
2023-05-02T03:36:08.913Z,521.00
2023-05-02T03:37:08.930Z,516.00
2023-05-02T03:38:08.952Z,520.00
2023-05-02T03:39:08.940Z,519.00
2023-05-02T03:40:08.985Z,518.00
2023-05-02T03:41:09.060Z,518.00
2023-05-02T03:42:09.129Z,519.00
2023-05-02T03:43:09.270Z,516.00
2023-05-02T03:44:09.190Z,520.00
2023-05-02T03:45:09.183Z,515.00
2023-05-02T03:46:09.293Z,522.00
2023-05-02T03:47:09.360Z,517.00
2023-05-02T03:48:09.369Z,519.00
2023-05-02T03:49:09.275Z,518.00
2023-05-02T03:50:09.333Z,520.00
2023-05-02T03:51:09.284Z,518.00
2023-05-02T03:52:09.305Z,524.00
2023-05-02T03:53:09.351Z,522.00
2023-05-02T03:54:09.308Z,522.00
2023-05-02T03:55:09.333Z,523.00
2023-05-02T03:56:09.363Z,521.00
2023-05-02T03:57:09.332Z,522.00
2023-05-02T03:58:09.378Z,521.00
2023-05-02T03:59:09.415Z,519.00
2023-05-02T04:00:09.372Z,521.00
2023-05-02T04:01:09.389Z,520.00
2023-05-02T04:02:09.429Z,522.00
2023-05-02T04:03:09.407Z,523.00
2023-05-02T04:04:09.441Z,514.00
2023-05-02T04:05:09.392Z,508.00
2023-05-02T04:06:09.448Z,506.00
2023-05-02T04:07:09.410Z,506.00
2023-05-02T04:08:09.407Z,500.00
2023-05-02T04:09:09.416Z,502.00
2023-05-02T04:10:09.434Z,500.00
2023-05-02T04:11:09.458Z,503.00
2023-05-02T04:12:09.437Z,501.00
2023-05-02T04:13:09.485Z,502.00
2023-05-02T04:14:09.484Z,503.00
2023-05-02T04:15:09.714Z,500.00
2023-05-02T04:16:09.563Z,502.00
2023-05-02T04:17:09.687Z,509.00
2023-05-02T04:18:09.684Z,502.00
2023-05-02T04:19:09.690Z,502.00
2023-05-02T04:20:09.761Z,502.00
2023-05-02T04:21:09.745Z,500.00
2023-05-02T04:22:09.815Z,506.00
2023-05-02T04:23:09.812Z,500.00
2023-05-02T04:24:09.867Z,503.00
2023-05-02T04:25:09.942Z,501.00
2023-05-02T04:26:09.992Z,504.00
2023-05-02T04:27:10.299Z,505.00
2023-05-02T04:28:10.057Z,503.00
2023-05-02T04:29:10.104Z,503.00
2023-05-02T04:30:10.170Z,502.00
2023-05-02T04:31:10.270Z,500.00
2023-05-02T04:32:10.308Z,504.00
2023-05-02T04:33:10.396Z,500.00
2023-05-02T04:34:10.394Z,503.00
2023-05-02T04:35:10.397Z,501.00
2023-05-02T04:36:10.428Z,501.00
2023-05-02T04:37:10.445Z,500.00
2023-05-02T04:38:10.468Z,500.00
2023-05-02T04:39:10.551Z,509.00
2023-05-02T04:40:10.546Z,510.00
2023-05-02T04:41:10.510Z,508.00
2023-05-02T04:42:10.560Z,500.00
2023-05-02T04:43:10.563Z,506.00
2023-05-02T04:44:10.578Z,509.00
2023-05-02T04:45:10.582Z,504.00
2023-05-02T04:46:10.658Z,506.00
2023-05-02T04:47:10.729Z,518.00
2023-05-02T04:48:10.699Z,508.00
2023-05-02T04:49:10.644Z,509.00
2023-05-02T04:50:10.659Z,504.00
2023-05-02T04:51:10.668Z,506.00
2023-05-02T04:52:10.727Z,513.00
2023-05-02T04:53:10.669Z,515.00
2023-05-02T04:54:10.681Z,494.00
2023-05-02T04:55:18.289Z,500.00
2023-05-02T04:56:10.685Z,474.00
2023-05-02T04:57:10.711Z,458.00
2023-05-02T04:58:10.729Z,444.00
2023-05-02T04:59:10.676Z,427.00
2023-05-02T05:00:10.687Z,415.00
2023-05-02T05:01:10.752Z,469.00
2023-05-02T05:02:10.743Z,500.00
2023-05-02T05:03:10.798Z,501.00
2023-05-02T05:04:10.880Z,504.00
2023-05-02T05:05:10.691Z,499.00
2023-05-02T05:06:10.726Z,501.00
2023-05-02T05:07:10.627Z,515.00
2023-05-02T05:08:10.633Z,501.00
2023-05-02T05:09:10.653Z,500.00
2023-05-02T05:10:10.651Z,517.00
2023-05-02T05:11:10.659Z,530.00
2023-05-02T05:12:10.598Z,551.00
2023-05-02T05:13:10.614Z,599.00
2023-05-02T05:14:10.574Z,611.00
2023-05-02T05:15:10.590Z,606.00
2023-05-02T05:16:10.613Z,596.00
2023-05-02T05:17:10.592Z,579.00
2023-05-02T05:18:10.616Z,568.00
2023-05-02T05:19:10.561Z,560.00
2023-05-02T05:20:10.585Z,504.00
2023-05-02T05:21:10.564Z,500.00
2023-05-02T05:22:10.544Z,500.00
2023-05-02T05:23:10.594Z,500.00
2023-05-02T05:24:10.611Z,502.00
2023-05-02T05:25:10.594Z,500.00
2023-05-02T05:26:10.615Z,509.00
2023-05-02T05:27:10.674Z,526.00
2023-05-02T05:28:10.739Z,505.00
2023-05-02T05:29:10.829Z,504.00
2023-05-02T05:30:10.855Z,502.00
2023-05-02T05:31:10.963Z,511.00
2023-05-02T05:32:11.016Z,526.00
2023-05-02T05:33:11.178Z,556.00
2023-05-02T05:34:11.112Z,565.00
2023-05-02T05:35:11.123Z,569.00
2023-05-02T05:36:11.202Z,543.00
2023-05-02T05:37:11.243Z,515.00
2023-05-02T05:38:11.293Z,499.00
2023-05-02T05:39:11.764Z,526.00
2023-05-02T05:40:11.321Z,505.00
2023-05-02T05:41:11.468Z,532.00
2023-05-02T05:42:11.412Z,532.00
2023-05-02T05:43:11.426Z,513.00
2023-05-02T05:44:11.516Z,548.00
2023-05-02T05:45:11.550Z,600.00
2023-05-02T05:46:11.553Z,644.00
2023-05-02T05:47:11.652Z,684.00
2023-05-02T05:48:11.728Z,723.00
2023-05-02T05:49:11.634Z,784.00
2023-05-02T05:50:11.663Z,826.00
2023-05-02T05:51:11.833Z,865.00
2023-05-02T05:52:11.800Z,897.00
2023-05-02T05:53:11.857Z,933.00
2023-05-02T05:54:11.896Z,951.00
2023-05-02T05:55:11.909Z,961.00
2023-05-02T05:56:11.951Z,979.00
2023-05-02T05:57:11.995Z,994.00
2023-05-02T05:58:11.902Z,1004.00
2023-05-02T05:59:11.903Z,1002.00
2023-05-02T06:00:12.011Z,1017.00
2023-05-02T06:01:12.045Z,1045.00
2023-05-02T06:02:12.203Z,1040.00
2023-05-02T06:03:12.288Z,1060.00
2023-05-02T06:04:12.288Z,1077.00
2023-05-02T06:05:12.433Z,1080.00
2023-05-02T06:06:12.301Z,1089.00
2023-05-02T06:07:12.262Z,1100.00
2023-05-02T06:08:12.341Z,1105.00
2023-05-02T06:09:12.335Z,1119.00
2023-05-02T06:10:12.817Z,1141.00
2023-05-02T06:11:12.394Z,1149.00
2023-05-02T06:12:12.403Z,1154.00
2023-05-02T06:13:12.426Z,1183.00
2023-05-02T06:14:12.427Z,1197.00
2023-05-02T06:15:12.426Z,1211.00
2023-05-02T06:16:12.497Z,1202.00
2023-05-02T06:17:12.477Z,1172.00
2023-05-02T06:18:12.533Z,1156.00
2023-05-02T06:19:12.501Z,1153.00
2023-05-02T06:20:12.516Z,1167.00
2023-05-02T06:21:12.506Z,1164.00
2023-05-02T06:22:12.577Z,1173.00
2023-05-02T06:23:12.578Z,1181.00
2023-05-02T06:24:12.590Z,1176.00
2023-05-02T06:25:12.589Z,1195.00
2023-05-02T06:26:12.570Z,1201.00
2023-05-02T06:27:12.615Z,1208.00
2023-05-02T06:28:12.678Z,1226.00
2023-05-02T06:29:12.651Z,1231.00
2023-05-02T06:30:12.582Z,1231.00
2023-05-02T06:31:12.621Z,1147.00
2023-05-02T06:32:12.606Z,1042.00
2023-05-02T06:33:12.698Z,937.00
2023-05-02T06:34:12.720Z,853.00
2023-05-02T06:35:12.712Z,871.00
2023-05-02T06:36:12.720Z,829.00
2023-05-02T06:37:12.783Z,735.00
2023-05-02T06:38:13.283Z,791.00
2023-05-02T06:39:12.825Z,823.00
2023-05-02T06:40:13.303Z,843.00
2023-05-02T06:41:12.961Z,799.00
2023-05-02T06:42:13.268Z,844.00
2023-05-02T06:43:13.041Z,839.00
2023-05-02T06:44:13.099Z,871.00
2023-05-02T06:45:13.145Z,882.00
2023-05-02T06:46:13.319Z,923.00
2023-05-02T06:47:13.402Z,947.00
2023-05-02T06:48:13.414Z,966.00
2023-05-02T06:49:13.317Z,995.00
2023-05-02T06:50:13.313Z,1004.00
2023-05-02T06:51:13.332Z,1030.00
2023-05-02T06:52:13.340Z,1037.00
2023-05-02T06:53:13.354Z,1012.00
2023-05-02T06:54:13.514Z,1039.00
2023-05-02T06:55:13.415Z,1026.00
2023-05-02T06:56:14.583Z,1018.00
2023-05-02T06:57:13.532Z,1033.00
2023-05-02T06:58:13.603Z,1011.00
2023-05-02T06:59:13.651Z,983.00
2023-05-02T07:00:13.622Z,995.00
2023-05-02T07:01:13.694Z,982.00
2023-05-02T07:02:13.708Z,954.00
2023-05-02T07:03:13.773Z,967.00
2023-05-02T07:04:13.840Z,976.00
2023-05-02T07:05:13.797Z,980.00
2023-05-02T07:06:13.829Z,981.00
2023-05-02T07:07:13.812Z,969.00
2023-05-02T07:08:13.815Z,981.00
2023-05-02T07:09:13.834Z,986.00
2023-05-02T07:10:14.287Z,999.00
2023-05-02T07:11:13.819Z,1010.00
2023-05-02T07:12:13.849Z,998.00
2023-05-02T07:13:13.849Z,1026.00
2023-05-02T07:14:14.266Z,1026.00
2023-05-02T07:15:13.821Z,1032.00
2023-05-02T07:16:14.372Z,1041.00
2023-05-02T07:17:14.299Z,1050.00
2023-05-02T07:18:14.423Z,1057.00
2023-05-02T07:19:13.874Z,1086.00
2023-05-02T07:20:13.860Z,1119.00
2023-05-02T07:21:13.898Z,1085.00
2023-05-02T07:22:13.949Z,1102.00
2023-05-02T07:23:14.292Z,1102.00
2023-05-02T07:24:14.356Z,1133.00
2023-05-02T07:25:14.056Z,1129.00
2023-05-02T07:26:14.095Z,1125.00
2023-05-02T07:27:14.198Z,1154.00
2023-05-02T07:28:14.299Z,1180.00
2023-05-02T07:29:14.822Z,1196.00
2023-05-02T07:30:14.830Z,1213.00
2023-05-02T07:31:14.489Z,1226.00
2023-05-02T07:32:14.629Z,1259.00
2023-05-02T07:33:14.653Z,1275.00
2023-05-02T07:34:14.625Z,1255.00
2023-05-02T07:35:14.656Z,1180.00
2023-05-02T07:36:14.732Z,1078.00
2023-05-02T07:37:14.827Z,1023.00
2023-05-02T07:38:14.779Z,1024.00
2023-05-02T07:39:14.864Z,1003.00
2023-05-02T07:40:14.816Z,1027.00
2023-05-02T07:41:15.784Z,1006.00
2023-05-02T07:42:15.335Z,997.00
2023-05-02T07:43:14.866Z,996.00
2023-05-02T07:44:14.846Z,964.00
2023-05-02T07:45:14.856Z,925.00
2023-05-02T07:46:15.494Z,860.00
2023-05-02T07:47:15.871Z,825.00
2023-05-02T07:48:15.099Z,774.00
2023-05-02T07:49:15.330Z,759.00
2023-05-02T07:50:14.942Z,738.00
2023-05-02T07:51:14.888Z,737.00
2023-05-02T07:52:14.932Z,751.00
2023-05-02T07:53:14.967Z,765.00
2023-05-02T07:54:14.944Z,792.00
2023-05-02T07:55:14.965Z,802.00
2023-05-02T07:56:14.961Z,787.00
2023-05-02T07:57:14.968Z,822.00
2023-05-02T07:58:15.120Z,843.00
2023-05-02T07:59:15.067Z,813.00
2023-05-02T08:00:15.047Z,741.00
2023-05-02T08:01:15.043Z,702.00
2023-05-02T08:02:15.151Z,736.00
2023-05-02T08:03:15.143Z,807.00
2023-05-02T08:04:15.619Z,834.00
2023-05-02T08:05:15.203Z,792.00
2023-05-02T08:06:15.133Z,737.00
2023-05-02T08:07:16.844Z,707.00
2023-05-02T08:08:15.155Z,743.00
2023-05-02T08:09:15.527Z,718.00
2023-05-02T08:10:15.182Z,716.00
2023-05-02T08:11:15.175Z,746.00
2023-05-02T08:12:15.171Z,786.00
2023-05-02T08:13:15.195Z,761.00
2023-05-02T08:14:15.200Z,718.00
2023-05-02T08:15:15.202Z,720.00
2023-05-02T08:16:15.356Z,728.00
2023-05-02T08:17:15.219Z,698.00
2023-05-02T08:18:15.307Z,664.00
2023-05-02T08:19:15.281Z,656.00
2023-05-02T08:20:15.224Z,665.00
2023-05-02T08:21:15.246Z,680.00
2023-05-02T08:22:15.379Z,704.00
2023-05-02T08:23:15.383Z,666.00
2023-05-02T08:24:15.356Z,671.00
2023-05-02T08:25:15.263Z,714.00
2023-05-02T08:26:15.389Z,747.00
2023-05-02T08:27:15.386Z,756.00
2023-05-02T08:28:15.414Z,780.00
2023-05-02T08:29:15.807Z,779.00
2023-05-02T08:30:18.519Z,662.00
2023-05-02T08:31:15.524Z,590.00
2023-05-02T08:32:15.403Z,567.00
2023-05-02T08:33:15.467Z,579.00
2023-05-02T08:34:15.495Z,586.00
2023-05-02T08:35:15.449Z,586.00
2023-05-02T08:36:15.447Z,547.00
2023-05-02T08:37:15.357Z,533.00
2023-05-02T08:38:15.496Z,537.00
2023-05-02T08:39:15.303Z,546.00
2023-05-02T08:40:15.310Z,555.00
2023-05-02T08:41:15.373Z,549.00
2023-05-02T08:42:15.316Z,561.00
2023-05-02T08:43:15.341Z,582.00
2023-05-02T08:44:15.336Z,595.00
2023-05-02T08:45:16.764Z,596.00
2023-05-02T08:46:16.095Z,607.00
2023-05-02T08:47:15.348Z,601.00
2023-05-02T08:48:15.323Z,608.00
2023-05-02T08:49:15.269Z,613.00
2023-05-02T08:50:15.262Z,632.00
2023-05-02T08:51:15.280Z,641.00
2023-05-02T08:52:15.203Z,641.00
2023-05-02T08:53:15.295Z,645.00
2023-05-02T08:54:15.258Z,642.00
2023-05-02T08:55:15.205Z,650.00
2023-05-02T08:56:15.221Z,640.00
2023-05-02T08:57:15.338Z,628.00
2023-05-02T08:58:16.321Z,603.00
2023-05-02T08:59:15.246Z,590.00
2023-05-02T09:00:15.312Z,565.00
2023-05-02T09:01:15.441Z,558.00
2023-05-02T09:02:15.482Z,560.00
2023-05-02T09:03:15.468Z,562.00
2023-05-02T09:04:15.961Z,565.00
2023-05-02T09:05:15.696Z,567.00
2023-05-02T09:06:15.581Z,548.00
2023-05-02T09:07:15.883Z,539.00
2023-05-02T09:08:16.282Z,546.00
2023-05-02T09:09:17.108Z,568.00
2023-05-02T09:10:15.778Z,581.00
2023-05-02T09:11:15.717Z,598.00
2023-05-02T09:12:15.738Z,611.00
2023-05-02T09:13:15.902Z,611.00
2023-05-02T09:14:15.718Z,621.00
2023-05-02T09:15:17.739Z,630.00
2023-05-02T09:16:15.791Z,630.00
2023-05-02T09:17:15.757Z,631.00
2023-05-02T09:18:15.660Z,632.00
2023-05-02T09:19:15.761Z,639.00
2023-05-02T09:20:15.717Z,648.00
2023-05-02T09:21:18.067Z,651.00
2023-05-02T09:22:15.656Z,652.00
2023-05-02T09:23:15.649Z,654.00
2023-05-02T09:24:15.699Z,658.00
2023-05-02T09:25:15.616Z,672.00
2023-05-02T09:26:15.632Z,709.00
2023-05-02T09:27:15.700Z,732.00
2023-05-02T09:28:15.856Z,715.00
2023-05-02T09:29:15.616Z,698.00
2023-05-02T09:30:15.951Z,718.00
2023-05-02T09:31:19.012Z,726.00
2023-05-02T09:32:17.044Z,728.00
2023-05-02T09:33:16.965Z,738.00
2023-05-02T09:34:15.931Z,759.00
2023-05-02T09:35:15.574Z,783.00
2023-05-02T09:36:15.571Z,812.00
2023-05-02T09:37:15.508Z,812.00
2023-05-02T09:38:15.559Z,825.00
2023-05-02T09:39:15.619Z,816.00
2023-05-02T09:40:15.885Z,782.00
2023-05-02T09:41:15.522Z,766.00
2023-05-02T09:42:15.586Z,771.00
2023-05-02T09:43:15.483Z,760.00
2023-05-02T09:44:15.525Z,749.00
2023-05-02T09:45:15.493Z,737.00
2023-05-02T09:46:15.561Z,710.00
2023-05-02T09:47:15.516Z,688.00
2023-05-02T09:48:15.454Z,702.00
2023-05-02T09:49:15.472Z,689.00
2023-05-02T09:50:15.492Z,666.00
2023-05-02T09:51:15.446Z,665.00
2023-05-02T09:52:15.536Z,650.00
2023-05-02T09:53:15.508Z,642.00
2023-05-02T09:54:15.440Z,631.00
2023-05-02T09:55:15.434Z,632.00
2023-05-02T09:56:15.428Z,618.00
2023-05-02T09:57:15.422Z,605.00
2023-05-02T09:58:15.393Z,605.00
2023-05-02T09:59:15.469Z,585.00
2023-05-02T10:00:15.351Z,579.00
2023-05-02T10:01:15.401Z,562.00
2023-05-02T10:02:15.459Z,565.00
2023-05-02T10:03:15.463Z,554.00
2023-05-02T10:04:15.448Z,546.00
2023-05-02T10:05:15.356Z,539.00
2023-05-02T10:06:15.551Z,536.00
2023-05-02T10:07:15.896Z,537.00
2023-05-02T10:08:15.309Z,531.00
2023-05-02T10:09:19.670Z,519.00
2023-05-02T10:10:16.311Z,519.00
2023-05-02T10:11:15.378Z,522.00
2023-05-02T10:12:15.316Z,536.00
2023-05-02T10:13:15.324Z,550.00
2023-05-02T10:14:15.352Z,570.00
2023-05-02T10:15:15.332Z,578.00
2023-05-02T10:16:15.352Z,588.00
2023-05-02T10:17:15.306Z,589.00
2023-05-02T10:18:15.349Z,573.00
2023-05-02T10:19:15.266Z,586.00
2023-05-02T10:20:15.280Z,592.00
2023-05-02T10:21:15.275Z,604.00
2023-05-02T10:22:15.277Z,600.00
2023-05-02T10:23:15.247Z,620.00
2023-05-02T10:24:15.255Z,634.00
2023-05-02T10:25:15.224Z,652.00
2023-05-02T10:26:15.237Z,658.00
2023-05-02T10:27:15.417Z,654.00
2023-05-02T10:28:15.286Z,623.00
2023-05-02T10:29:15.443Z,595.00
2023-05-02T10:30:15.307Z,598.00
2023-05-02T10:31:15.397Z,550.00
2023-05-02T10:32:15.371Z,512.00
2023-05-02T10:33:15.378Z,552.00
2023-05-02T10:34:15.356Z,506.00
2023-05-02T10:35:15.375Z,471.00
2023-05-02T10:36:15.380Z,486.00
2023-05-02T10:37:15.420Z,493.00
2023-05-02T10:38:15.501Z,497.00
2023-05-02T10:39:15.515Z,503.00
2023-05-02T10:40:15.660Z,540.00
2023-05-02T10:41:15.621Z,505.00
2023-05-02T10:42:15.705Z,503.00
2023-05-02T10:43:15.738Z,510.00
2023-05-02T10:44:15.764Z,500.00
2023-05-02T10:45:15.985Z,500.00
2023-05-02T10:46:15.979Z,495.00
2023-05-02T10:47:16.044Z,505.00
2023-05-02T10:48:16.010Z,518.00
2023-05-02T10:49:16.086Z,506.00
2023-05-02T10:50:16.177Z,509.00
2023-05-02T10:51:16.368Z,500.00
2023-05-02T10:52:16.260Z,500.00
2023-05-02T10:53:16.427Z,500.00
2023-05-02T10:54:16.334Z,524.00
2023-05-02T10:55:16.458Z,492.00
2023-05-02T10:56:16.518Z,504.00
2023-05-02T10:57:16.545Z,506.00
2023-05-02T10:58:16.542Z,510.00
2023-05-02T10:59:16.549Z,547.00
2023-05-02T11:00:16.528Z,547.00
2023-05-02T11:01:16.647Z,563.00
2023-05-02T11:02:16.663Z,568.00
2023-05-02T11:03:16.815Z,555.00
2023-05-02T11:04:16.712Z,567.00
2023-05-02T11:05:16.786Z,522.00
2023-05-02T11:06:16.926Z,529.00
2023-05-02T11:07:16.872Z,539.00
2023-05-02T11:08:19.357Z,528.00
2023-05-02T11:09:16.935Z,526.00
2023-05-02T11:10:16.950Z,509.00
2023-05-02T11:11:16.961Z,509.00
2023-05-02T11:12:16.905Z,520.00
2023-05-02T11:13:16.968Z,538.00
2023-05-02T11:14:17.991Z,555.00
2023-05-02T11:15:16.880Z,558.00
2023-05-02T11:16:17.006Z,551.00
2023-05-02T11:17:16.950Z,579.00
2023-05-02T11:18:16.959Z,576.00
2023-05-02T11:19:16.888Z,581.00
2023-05-02T11:20:16.969Z,600.00
2023-05-02T11:21:16.927Z,602.00
2023-05-02T11:22:16.884Z,590.00
2023-05-02T11:23:16.966Z,545.00
2023-05-02T11:24:16.887Z,509.00
2023-05-02T11:25:16.881Z,526.00
2023-05-02T11:26:16.803Z,507.00
2023-05-02T11:27:16.840Z,520.00
2023-05-02T11:28:16.776Z,505.00
2023-05-02T11:29:16.781Z,500.00
2023-05-02T11:30:16.891Z,513.00
2023-05-02T11:31:16.787Z,537.00
2023-05-02T11:32:16.841Z,554.00
2023-05-02T11:33:16.862Z,593.00
2023-05-02T11:34:16.811Z,637.00
2023-05-02T11:35:16.822Z,665.00
2023-05-02T11:36:16.917Z,713.00
2023-05-02T11:37:16.903Z,741.00
2023-05-02T11:38:16.923Z,749.00
2023-05-02T11:39:16.947Z,780.00
2023-05-02T11:40:17.016Z,784.00
2023-05-02T11:41:17.048Z,795.00
2023-05-02T11:42:17.068Z,802.00
2023-05-02T11:43:17.182Z,808.00
2023-05-02T11:44:17.182Z,807.00
2023-05-02T11:45:17.140Z,802.00
2023-05-02T11:46:17.214Z,824.00
2023-05-02T11:47:17.179Z,853.00
2023-05-02T11:48:17.211Z,852.00
2023-05-02T11:49:17.214Z,862.00
2023-05-02T11:50:17.278Z,860.00
2023-05-02T11:51:17.313Z,873.00
2023-05-02T11:52:17.317Z,867.00
2023-05-02T11:53:17.340Z,869.00
2023-05-02T11:54:17.341Z,876.00
2023-05-02T11:55:17.396Z,888.00
2023-05-02T11:56:17.417Z,884.00
2023-05-02T11:57:17.422Z,871.00
2023-05-02T11:58:17.431Z,890.00
2023-05-02T11:59:17.500Z,879.00
2023-05-02T12:00:17.492Z,893.00
2023-05-02T12:01:17.678Z,881.00
2023-05-02T12:02:17.660Z,888.00
2023-05-02T12:03:17.679Z,897.00
2023-05-02T12:04:17.592Z,902.00
2023-05-02T12:05:17.592Z,912.00
2023-05-02T12:06:17.658Z,919.00
2023-05-02T12:07:17.655Z,938.00
2023-05-02T12:08:17.655Z,942.00
2023-05-02T12:09:17.781Z,941.00
2023-05-02T12:10:17.724Z,936.00
2023-05-02T12:11:17.745Z,1047.00
2023-05-02T12:12:17.761Z,1099.00
2023-05-02T12:13:17.775Z,1167.00
2023-05-02T12:14:17.773Z,1187.00
2023-05-02T12:15:17.807Z,1176.00
2023-05-02T12:16:17.868Z,1212.00
2023-05-02T12:17:17.820Z,1252.00
2023-05-02T12:18:18.394Z,1287.00
2023-05-02T12:19:17.861Z,1294.00
2023-05-02T12:20:17.849Z,1372.00
2023-05-02T12:21:17.858Z,1479.00
2023-05-02T12:22:17.942Z,1509.00
2023-05-02T12:23:17.842Z,1531.00
2023-05-02T12:24:17.876Z,1561.00
2023-05-02T12:25:17.925Z,1620.00
2023-05-02T12:26:17.919Z,1623.00